sensor_id;sensor_type;location;lat;lon;timestamp;P1;durP1;ratioP1;P2;durP2;ratioP2
30068;SDS011;16894;49.456;10.644;2023-03-01T17:11:46;58.57;;;20.97;;
30068;SDS011;16894;49.456;10.644;2023-03-01T17:14:12;57.42;;;22.17;;
30068;SDS011;16894;49.456;10.644;2023-03-01T17:16:38;44.70;;;20.97;;
30068;SDS011;16894;49.456;10.644;2023-03-01T17:19:03;57.93;;;23.83;;
30068;SDS011;16894;49.456;10.644;2023-03-01T17:21:29;64.53;;;22.70;;
30068;SDS011;16894;49.456;10.644;2023-03-01T17:23:56;47.55;;;22.67;;
30068;SDS011;16894;49.456;10.644;2023-03-01T17:26:22;50.65;;;23.38;;
30068;SDS011;16894;49.456;10.644;2023-03-01T17:28:47;87.37;;;30.50;;
30068;SDS011;16894;49.456;10.644;2023-03-01T17:31:16;80.85;;;30.85;;
30068;SDS011;16894;49.456;10.644;2023-03-01T17:33:42;100.22;;;43.55;;
30068;SDS011;16894;49.456;10.644;2023-03-01T17:36:08;78.60;;;32.17;;
30068;SDS011;16894;49.456;10.644;2023-03-01T17:38:33;92.83;;;35.03;;
30068;SDS011;16894;49.456;10.644;2023-03-01T17:41:02;88.47;;;31.25;;
30068;SDS011;16894;49.456;10.644;2023-03-01T17:43:28;56.05;;;24.48;;
30068;SDS011;16894;49.456;10.644;2023-03-01T17:45:54;93.60;;;41.53;;
30068;SDS011;16894;49.456;10.644;2023-03-01T17:48:20;65.70;;;33.65;;
30068;SDS011;16894;49.456;10.644;2023-03-01T17:50:46;62.55;;;32.13;;
30068;SDS011;16894;49.456;10.644;2023-03-01T17:53:12;63.07;;;32.57;;
30068;SDS011;16894;49.456;10.644;2023-03-01T17:55:38;72.07;;;29.23;;
30068;SDS011;16894;49.456;10.644;2023-03-01T17:58:06;71.25;;;34.00;;
30068;SDS011;16894;49.456;10.644;2023-03-01T18:00:32;65.53;;;32.47;;
30068;SDS011;16894;49.456;10.644;2023-03-01T18:02:58;46.80;;;22.77;;
30068;SDS011;16894;49.456;10.644;2023-03-01T18:05:24;46.27;;;23.07;;
30068;SDS011;16894;49.456;10.644;2023-03-01T18:07:51;53.58;;;23.83;;
30068;SDS011;16894;49.456;10.644;2023-03-01T18:10:17;58.88;;;28.08;;
30068;SDS011;16894;49.456;10.644;2023-03-01T18:12:44;65.78;;;30.52;;
30068;SDS011;16894;49.456;10.644;2023-03-01T18:15:10;58.63;;;28.50;;
30068;SDS011;16894;49.456;10.644;2023-03-01T18:17:36;57.00;;;24.70;;
30068;SDS011;16894;49.456;10.644;2023-03-01T18:20:03;52.42;;;24.23;;
30068;SDS011;16894;49.456;10.644;2023-03-01T18:22:31;42.00;;;22.48;;
30068;SDS011;16894;49.456;10.644;2023-03-01T18:24:57;56.33;;;26.00;;
30068;SDS011;16894;49.456;10.644;2023-03-01T18:27:23;53.00;;;28.53;;
30068;SDS011;16894;49.456;10.644;2023-03-01T18:29:49;52.10;;;25.80;;
30068;SDS011;16894;49.456;10.644;2023-03-01T18:32:15;54.60;;;25.58;;
30068;SDS011;16894;49.456;10.644;2023-03-01T18:34:40;51.80;;;25.42;;
30068;SDS011;16894;49.456;10.644;2023-03-01T18:37:06;58.38;;;26.67;;
30068;SDS011;16894;49.456;10.644;2023-03-01T18:39:32;54.28;;;31.25;;
30068;SDS011;16894;49.456;10.644;2023-03-01T18:41:58;67.88;;;36.03;;
30068;SDS011;16894;49.456;10.644;2023-03-01T18:44:24;58.27;;;30.83;;
30068;SDS011;16894;49.456;10.644;2023-03-01T18:46:49;65.75;;;29.65;;
30068;SDS011;16894;49.456;10.644;2023-03-01T18:49:17;77.80;;;37.97;;
30068;SDS011;16894;49.456;10.644;2023-03-01T18:51:42;68.80;;;32.17;;
30068;SDS011;16894;49.456;10.644;2023-03-01T18:54:09;59.67;;;29.13;;
30068;SDS011;16894;49.456;10.644;2023-03-01T18:56:36;64.88;;;35.03;;
30068;SDS011;16894;49.456;10.644;2023-03-01T18:59:02;72.00;;;30.73;;
30068;SDS011;16894;49.456;10.644;2023-03-01T19:01:29;56.88;;;29.58;;
30068;SDS011;16894;49.456;10.644;2023-03-01T19:03:56;60.95;;;30.80;;
30068;SDS011;16894;49.456;10.644;2023-03-01T19:06:22;57.83;;;28.35;;
30068;SDS011;16894;49.456;10.644;2023-03-01T19:08:52;54.30;;;28.00;;
30068;SDS011;16894;49.456;10.644;2023-03-01T19:11:17;60.40;;;26.23;;
30068;SDS011;16894;49.456;10.644;2023-03-01T19:13:44;55.03;;;24.80;;
30068;SDS011;16894;49.456;10.644;2023-03-01T19:16:18;51.33;;;24.88;;
30068;SDS011;16894;49.456;10.644;2023-03-01T19:18:45;54.83;;;24.55;;
30068;SDS011;16894;49.456;10.644;2023-03-01T19:21:19;47.28;;;23.95;;
30068;SDS011;16894;49.456;10.644;2023-03-01T19:23:46;71.45;;;29.67;;
30068;SDS011;16894;49.456;10.644;2023-03-01T19:26:16;67.47;;;32.58;;
30068;SDS011;16894;49.456;10.644;2023-03-01T19:28:47;52.72;;;28.02;;
30068;SDS011;16894;49.456;10.644;2023-03-01T19:31:15;63.35;;;30.52;;
30068;SDS011;16894;49.456;10.644;2023-03-01T19:33:43;78.55;;;36.85;;
30068;SDS011;16894;49.456;10.644;2023-03-01T19:36:09;78.72;;;37.63;;
30068;SDS011;16894;49.456;10.644;2023-03-01T19:38:37;69.70;;;32.55;;
30068;SDS011;16894;49.456;10.644;2023-03-01T19:41:06;62.45;;;28.63;;
30068;SDS011;16894;49.456;10.644;2023-03-01T19:43:33;66.55;;;29.83;;
30068;SDS011;16894;49.456;10.644;2023-03-01T19:45:59;65.75;;;30.75;;
30068;SDS011;16894;49.456;10.644;2023-03-01T19:48:25;62.80;;;29.75;;
30068;SDS011;16894;49.456;10.644;2023-03-01T19:50:51;59.00;;;27.88;;
30068;SDS011;16894;49.456;10.644;2023-03-01T19:55:43;45.17;;;24.65;;
30068;SDS011;16894;49.456;10.644;2023-03-01T19:58:09;59.83;;;26.03;;
30068;SDS011;16894;49.456;10.644;2023-03-01T20:00:35;53.53;;;27.25;;
30068;SDS011;16894;49.456;10.644;2023-03-01T20:03:02;61.20;;;26.77;;
30068;SDS011;16894;49.456;10.644;2023-03-01T20:05:31;56.80;;;28.73;;
30068;SDS011;16894;49.456;10.644;2023-03-01T20:07:57;61.65;;;30.58;;
30068;SDS011;16894;49.456;10.644;2023-03-01T20:10:23;69.97;;;31.50;;
30068;SDS011;16894;49.456;10.644;2023-03-01T20:12:52;71.10;;;35.22;;
30068;SDS011;16894;49.456;10.644;2023-03-01T20:15:18;72.53;;;32.72;;
30068;SDS011;16894;49.456;10.644;2023-03-01T20:17:44;73.82;;;31.95;;
30068;SDS011;16894;49.456;10.644;2023-03-01T20:20:11;65.68;;;30.75;;
30068;SDS011;16894;49.456;10.644;2023-03-01T20:22:37;77.18;;;35.83;;
30068;SDS011;16894;49.456;10.644;2023-03-01T20:25:02;59.22;;;29.90;;
30068;SDS011;16894;49.456;10.644;2023-03-01T20:27:29;57.15;;;25.80;;
30068;SDS011;16894;49.456;10.644;2023-03-01T20:29:55;74.95;;;31.15;;
30068;SDS011;16894;49.456;10.644;2023-03-01T20:32:20;59.90;;;28.38;;
30068;SDS011;16894;49.456;10.644;2023-03-01T20:34:46;64.33;;;28.67;;
30068;SDS011;16894;49.456;10.644;2023-03-01T20:37:11;63.17;;;26.77;;
30068;SDS011;16894;49.456;10.644;2023-03-01T20:39:37;70.43;;;34.70;;
30068;SDS011;16894;49.456;10.644;2023-03-01T20:42:03;103.03;;;42.33;;
30068;SDS011;16894;49.456;10.644;2023-03-01T20:44:28;69.55;;;32.65;;
30068;SDS011;16894;49.456;10.644;2023-03-01T20:46:54;66.67;;;29.90;;
30068;SDS011;16894;49.456;10.644;2023-03-01T20:49:19;66.82;;;31.73;;
30068;SDS011;16894;49.456;10.644;2023-03-01T20:51:45;73.65;;;34.33;;
30068;SDS011;16894;49.456;10.644;2023-03-01T20:54:13;57.50;;;29.88;;
30068;SDS011;16894;49.456;10.644;2023-03-01T20:56:39;68.85;;;31.45;;
30068;SDS011;16894;49.456;10.644;2023-03-01T20:59:05;71.57;;;29.13;;
30068;SDS011;16894;49.456;10.644;2023-03-01T21:01:34;73.97;;;31.83;;
30068;SDS011;16894;49.456;10.644;2023-03-01T21:06:26;69.53;;;31.67;;
30068;SDS011;16894;49.456;10.644;2023-03-01T21:08:53;73.90;;;33.40;;
30068;SDS011;16894;49.456;10.644;2023-03-01T21:11:19;77.03;;;33.38;;
30068;SDS011;16894;49.456;10.644;2023-03-01T21:13:49;74.07;;;32.10;;
30068;SDS011;16894;49.456;10.644;2023-03-01T21:16:19;72.38;;;33.85;;
30068;SDS011;16894;49.456;10.644;2023-03-01T21:18:45;76.93;;;35.17;;
30068;SDS011;16894;49.456;10.644;2023-03-01T21:21:12;64.43;;;32.22;;
30068;SDS011;16894;49.456;10.644;2023-03-01T21:23:41;64.80;;;31.92;;
30068;SDS011;16894;49.456;10.644;2023-03-01T21:26:18;68.32;;;30.20;;
30068;SDS011;16894;49.456;10.644;2023-03-01T21:31:12;79.78;;;34.28;;
30068;SDS011;16894;49.456;10.644;2023-03-01T21:33:42;106.43;;;35.95;;
30068;SDS011;16894;49.456;10.644;2023-03-01T21:36:12;78.10;;;36.08;;
30068;SDS011;16894;49.456;10.644;2023-03-01T21:38:39;71.18;;;33.72;;
30068;SDS011;16894;49.456;10.644;2023-03-01T21:41:07;76.55;;;34.63;;
30068;SDS011;16894;49.456;10.644;2023-03-01T21:43:35;80.88;;;34.35;;
30068;SDS011;16894;49.456;10.644;2023-03-01T21:48:31;72.82;;;32.38;;
30068;SDS011;16894;49.456;10.644;2023-03-01T21:50:58;82.97;;;35.95;;
30068;SDS011;16894;49.456;10.644;2023-03-01T21:53:25;83.43;;;37.65;;
30068;SDS011;16894;49.456;10.644;2023-03-01T21:55:53;70.75;;;33.25;;
30068;SDS011;16894;49.456;10.644;2023-03-01T21:58:19;79.45;;;32.83;;
30068;SDS011;16894;49.456;10.644;2023-03-01T22:00:45;73.55;;;32.13;;
30068;SDS011;16894;49.456;10.644;2023-03-01T22:03:11;81.78;;;33.10;;
30068;SDS011;16894;49.456;10.644;2023-03-01T22:05:37;131.52;;;47.00;;
30068;SDS011;16894;49.456;10.644;2023-03-01T22:08:03;191.68;;;62.72;;
30068;SDS011;16894;49.456;10.644;2023-03-01T22:10:29;140.50;;;54.80;;
30068;SDS011;16894;49.456;10.644;2023-03-01T22:12:56;135.15;;;50.72;;
30068;SDS011;16894;49.456;10.644;2023-03-01T22:15:23;103.32;;;40.95;;
30068;SDS011;16894;49.456;10.644;2023-03-01T22:17:50;101.60;;;43.17;;
30068;SDS011;16894;49.456;10.644;2023-03-01T22:20:16;147.13;;;54.38;;
30068;SDS011;16894;49.456;10.644;2023-03-01T22:22:42;94.88;;;38.08;;
30068;SDS011;16894;49.456;10.644;2023-03-01T22:25:08;79.20;;;35.05;;
30068;SDS011;16894;49.456;10.644;2023-03-01T22:27:35;110.20;;;44.25;;
30068;SDS011;16894;49.456;10.644;2023-03-01T22:30:04;184.70;;;64.88;;
30068;SDS011;16894;49.456;10.644;2023-03-01T22:32:30;130.73;;;53.53;;
30068;SDS011;16894;49.456;10.644;2023-03-01T22:34:56;92.07;;;41.87;;
30068;SDS011;16894;49.456;10.644;2023-03-01T22:37:21;91.00;;;40.60;;
30068;SDS011;16894;49.456;10.644;2023-03-01T22:39:47;94.13;;;41.20;;
30068;SDS011;16894;49.456;10.644;2023-03-01T22:42:12;84.00;;;38.07;;
30068;SDS011;16894;49.456;10.644;2023-03-01T22:44:38;80.43;;;37.40;;
30068;SDS011;16894;49.456;10.644;2023-03-01T22:47:04;69.37;;;31.03;;
30068;SDS011;16894;49.456;10.644;2023-03-01T22:49:29;76.57;;;35.43;;
30068;SDS011;16894;49.456;10.644;2023-03-01T22:51:55;65.60;;;32.22;;
30068;SDS011;16894;49.456;10.644;2023-03-01T22:54:20;70.80;;;31.07;;
30068;SDS011;16894;49.456;10.644;2023-03-01T22:56:46;63.75;;;31.15;;
30068;SDS011;16894;49.456;10.644;2023-03-01T22:59:13;66.90;;;31.83;;
30068;SDS011;16894;49.456;10.644;2023-03-01T23:01:42;58.15;;;29.88;;
30068;SDS011;16894;49.456;10.644;2023-03-01T23:06:35;79.90;;;33.92;;
30068;SDS011;16894;49.456;10.644;2023-03-01T23:09:14;76.13;;;34.47;;
30068;SDS011;16894;49.456;10.644;2023-03-01T23:11:41;75.38;;;31.58;;
30068;SDS011;16894;49.456;10.644;2023-03-01T23:14:07;59.30;;;30.65;;
30068;SDS011;16894;49.456;10.644;2023-03-01T23:16:33;68.47;;;33.33;;
30068;SDS011;16894;49.456;10.644;2023-03-01T23:18:59;86.37;;;36.90;;
30068;SDS011;16894;49.456;10.644;2023-03-01T23:21:25;72.90;;;34.53;;
30068;SDS011;16894;49.456;10.644;2023-03-01T23:26:18;65.97;;;31.52;;
30068;SDS011;16894;49.456;10.644;2023-03-01T23:28:46;72.35;;;32.97;;
30068;SDS011;16894;49.456;10.644;2023-03-01T23:31:14;67.82;;;33.10;;
30068;SDS011;16894;49.456;10.644;2023-03-01T23:33:40;67.70;;;31.60;;
30068;SDS011;16894;49.456;10.644;2023-03-01T23:36:21;63.92;;;29.63;;
30068;SDS011;16894;49.456;10.644;2023-03-01T23:38:56;62.15;;;30.67;;
30068;SDS011;16894;49.456;10.644;2023-03-01T23:41:24;68.97;;;31.88;;
30068;SDS011;16894;49.456;10.644;2023-03-01T23:43:52;67.22;;;32.20;;
30068;SDS011;16894;49.456;10.644;2023-03-01T23:46:20;72.75;;;33.72;;
30068;SDS011;16894;49.456;10.644;2023-03-01T23:48:47;73.50;;;33.05;;
30068;SDS011;16894;49.456;10.644;2023-03-01T23:51:13;67.53;;;33.75;;
30068;SDS011;16894;49.456;10.644;2023-03-01T23:53:42;69.57;;;31.58;;
30068;SDS011;16894;49.456;10.644;2023-03-01T23:56:18;57.50;;;29.58;;
30068;SDS011;16894;49.456;10.644;2023-03-01T23:58:51;68.22;;;31.45;;
